Burneyville, OK (73430)

10:52 AM CST on March 01, 2015 (GMT -0600)
Bulcher | Change Station
CLOSE
Current Station
Personal Weather Station
Location: Muenster, TX
Elevation: 850 ft
Nearby Weather Stations
Active Advisory: Winter Weather Advisory Active Notice: Record Report, Local Storm Report

Elev 850 ft 33.80 °N, 97.42 °W | Updated 5 seconds ago

Overcast
Overcast
33.1 °F
Feels Like 29 °F
N
4.3
Wind Variable Wind from NNW
Gusts 4.3 mph

Today
High -- | Low -- °F
--% Chance of Precip.
Yesterday
High -- | Low -- °F
Precip. -- in
6:58 AM 6:25 PM
Waxing Gibbous, 86% visible
Pressure 30.39 in
Visibility 10.0 miles
Clouds Overcast 700 ft
Windchill 29 °F
Dew Point 33 °F
Humidity 100%
Rainfall 0.00 in
Snow Depth Not available.
UV 1 out of 12
Pollen 6.50 out of 12
Air Quality Not available.
Flu Activity Not available.
METAR K1F0 011635Z AUTO 00000KT 10SM OVC007 00/00 A3039 RMK AO2

More Conditions Fewer Conditions

Pressure 30.39 in
Visibility 10.0 miles
Clouds Overcast 700 ft
Windchill 29 °F
Dew Point 33 °F
Humidity 100%
Rainfall 0.00 in
Snow Depth Not available.
UV 1 out of 12
Pollen 6.50 out of 12
Air Quality Not available.
Flu Activity Not available.
METAR K1F0 011635Z AUTO 00000KT 10SM OVC007 00/00 A3039 RMK AO2

More Conditions Fewer Conditions

10-Day Weather Forecast

Almanac

Astronomy

Mar. 01, 2015 Rise Set
Actual Time
Civil Twilight
Nautical Twilight
Astronomical Twilight
Moon
Length of Visible Light
Length of Day
Tomorrow will be .
, % of the Moon is Illuminated

Today's Extremes

State Highs State Lows

Community

WunderPhotos

Upload Photos

1,801,451 photos uploaded!

WunderBlogs® & News

Nearby

Air Quality

  Air Quality AQ Index Pollutant
Not available.

Snow Depth

Station Depth Elevation

Earthquake Activity

City Distance Mag. Time & Date
Minimum magnitude displayed is 2.5.

Coastal Water Temperatures

Place Temperature

Nearby Weather Stations

Winter Weather Advisory
Statement as of 2:45 AM CST on March 01, 2015

... Winter Weather Advisory now in effect until 11 am CST this
morning...

* main impact: periods of freezing drizzle will maintain iced
surfaces.

* Roads and walkways: roads and walkways will be very slick and
hazardous.

Precautionary/preparedness actions...

Be careful if you have to travel. Even small amounts of ice and
snow can make roads and sidewalks slick and dangerous.